Terminal Aerodrome Forecast
Issued by NWS Blacksburg, VA

Current Version | Previous Version | Graphics & Text | Print | Product List | Glossary On
Versions: 1 2 3 4 5 6 7 8 9 10 11 12 13 14
000
FTUS41 KRNK 291722
TAFBLF
TAF
KBLF 291722Z 2918/3018 06003KT P6SM SCT250
     FM292000 03006KT P6SM BKN040
     FM300200 09003KT P6SM SCT040
     FM301500 05006KT P6SM SCT100=

USA.gov is the U.S. government's official web portal to all federal, state and local government web resources and services.